ADDS METAR Data INFO
IDs: Format: Raw Decoded Include TAF

Data at: 1515 UTC 22 Jun 2018

KJDD 221455Z AUTO 23009KT 10SM CLR 30/23 A2988 RMK AO2
KJDD 221435Z AUTO 22010G15KT 10SM CLR 29/23 A2988 RMK AO2
KJDD 221415Z AUTO 25012G16KT 10SM CLR 29/23 A2988 RMK AO2
KJDD 221355Z AUTO 22007KT 10SM CLR 28/23 A2988 RMK AO2
KJDD 221335Z AUTO 23010KT 10SM CLR 27/23 A2988 RMK AO2 LTG DSNT NW
KJDD 221315Z AUTO 22008G14KT 10SM CLR 27/23 A2987 RMK AO2
KJDD 221255Z AUTO 21008KT 10SM CLR 26/23 A2986 RMK AO2
KJDD 221235Z AUTO 22011G15KT 10SM CLR 26/23 A2986 RMK AO2
KJDD 221215Z AUTO 21006G15KT 10SM CLR 25/23 A2986 RMK AO2
KJDD 221155Z AUTO 21006KT 10SM CLR 25/23 A2986 RMK AO2
KJDD 221135Z AUTO 21007KT 160V220 10SM CLR 25/23 A2985 RMK AO2
KJDD 221115Z AUTO 21006KT 10SM CLR 25/23 A2985 RMK AO2
KJDD 221055Z AUTO 21007KT 10SM SCT100 25/23 A2984 RMK AO2
KJDD 221035Z AUTO 20007KT 110V220 10SM BKN100 26/23 A2984 RMK AO2
KJDD 221015Z AUTO 21007KT 10SM BKN100 26/24 A2984 RMK AO2
KJDD 220955Z AUTO 21007KT 10SM OVC100 26/24 A2984 RMK AO2
KJDD 220935Z AUTO 21005KT 10SM OVC100 26/24 A2984 RMK AO2
KJDD 220915Z AUTO 21008KT 10SM BKN100 26/24 A2983 RMK AO2
KJDD 220855Z AUTO 21006KT 10SM CLR 26/24 A2983 RMK AO2
KJDD 220835Z AUTO 21006KT 10SM SCT100 26/24 A2983 RMK AO2
KJDD 220815Z AUTO 21007KT 10SM SCT100 26/24 A2983 RMK AO2
KJDD 220755Z AUTO 20006KT 10SM CLR 26/23 A2982 RMK AO2
KJDD 220735Z AUTO 20007KT 10SM CLR 26/23 A2982 RMK AO2
KJDD 220715Z AUTO 20007KT 10SM CLR 27/23 A2982 RMK AO2
KJDD 220655Z AUTO 20007KT 140V230 10SM CLR 27/23 A2982 RMK AO2
KJDD 220635Z AUTO 19008KT 10SM CLR 27/23 A2983 RMK AO2
KJDD 220615Z AUTO 18005KT 10SM CLR 27/22 A2983 RMK AO2
KJDD 220555Z AUTO 18005KT 10SM CLR 27/22 A2984 RMK AO2
KJDD 220535Z AUTO 18006KT 10SM CLR 27/22 A2985 RMK AO2
KJDD 220515Z AUTO 19005KT 10SM CLR 27/22 A2985 RMK AO2
KJDD 220455Z AUTO 18004KT 10SM CLR 27/22 A2985 RMK AO2
KJDD 220435Z AUTO 19005KT 10SM CLR 28/22 A2985 RMK AO2
KJDD 220415Z AUTO 19004KT 10SM CLR 28/23 A2986 RMK AO2
KJDD 220355Z AUTO 18004KT 10SM CLR 28/23 A2986 RMK AO2
KJDD 220335Z AUTO 17004KT 10SM CLR 28/23 A2986 RMK AO2
KJDD 220315Z AUTO 18004KT 10SM CLR 28/23 A2985 RMK AO2
KJDD 220255Z AUTO 17003KT 10SM CLR 28/23 A2985 RMK AO2
KJDD 220235Z AUTO 17004KT 10SM CLR 29/23 A2985 RMK AO2
KJDD 220215Z AUTO 17005KT 10SM CLR 29/23 A2984 RMK AO2
KJDD 220155Z AUTO 17004KT 10SM CLR 29/23 A2984 RMK AO2
KJDD 220135Z AUTO 17004KT 10SM CLR 30/23 A2984 RMK AO2
KJDD 220115Z AUTO 17003KT 10SM CLR 31/24 A2984 RMK AO2
KJDD 220055Z AUTO 17004KT 10SM CLR 31/24 A2984 RMK AO2
KJDD 220035Z AUTO 17004KT 10SM CLR 32/24 A2984 RMK AO2
KJDD 220015Z AUTO 15006KT 10SM CLR 32/23 A2984 RMK AO2
KJDD 212355Z AUTO 13006KT 10SM CLR 33/23 A2984 RMK AO2
KJDD 212335Z AUTO 20006KT 10SM CLR 33/23 A2984 RMK AO2
KJDD 212315Z AUTO 14006KT 10SM CLR 33/23 A2984 RMK AO2
KJDD 212255Z AUTO 16006KT 10SM CLR 34/22 A2984 RMK AO2
KJDD 212235Z AUTO 25007KT 180V360 10SM CLR 34/21 A2985 RMK AO2
KJDD 212215Z AUTO 23005KT 10SM CLR 34/21 A2985 RMK AO2
KJDD 212155Z AUTO 15005KT 10SM CLR 34/21 A2986 RMK AO2
KJDD 212135Z AUTO 13005KT 10SM SCT050 33/21 A2986 RMK AO2
KJDD 212115Z AUTO 23006KT 10SM SCT049 34/21 A2987 RMK AO2
KJDD 212055Z AUTO 17005KT 10SM SCT049 33/21 A2987 RMK AO2
KJDD 212035Z AUTO 11004KT 10SM SCT049 33/22 A2988 RMK AO2
KJDD 212015Z AUTO 11003KT 10SM SCT047 33/22 A2988 RMK AO2
KJDD 211955Z AUTO 01003KT 10SM CLR 33/20 A2989 RMK AO2
KJDD 211935Z AUTO 00000KT 10SM SCT041 33/22 A2990 RMK AO2
KJDD 211915Z AUTO 34003KT 10SM BKN041 32/22 A2990 RMK AO2
KJDD 211855Z AUTO 30004KT 10SM SCT037 32/22 A2992 RMK AO2
KJDD 211835Z AUTO 17004KT 10SM SCT035 31/22 A2992 RMK AO2
KJDD 211815Z AUTO 01005KT 10SM SCT030 SCT036 31/23 A2992 RMK AO2
KJDD 211755Z AUTO 20004KT 10SM BKN030 30/23 A2993 RMK AO2
KJDD 211735Z AUTO 21003KT 10SM SCT025 SCT033 30/23 A2994 RMK AO2
KJDD 211715Z AUTO 12005KT 10SM BKN025 OVC031 29/23 A2994 RMK AO2
KJDD 211655Z AUTO 32005KT 10SM SCT021 BKN027 29/23 A2994 RMK AO2
KJDD 211635Z AUTO 28004KT 10SM SCT015 SCT021 OVC027 28/23 A2994 RMK AO2
KJDD 211615Z AUTO 00000KT 10SM SCT015 SCT019 OVC025 27/23 A2995 RMK AO2
KJDD 211555Z AUTO 31006KT 10SM SCT013 OVC023 27/23 A2995 RMK AO2
KJDD 211535Z AUTO 34005KT 10SM BKN013 OVC019 26/23 A2995 RMK AO2
KJDD 211515Z AUTO 24004KT 10SM OVC015 26/23 A2995 RMK AO2
KJDD 211455Z AUTO 24004KT 10SM OVC015 26/23 A2995 RMK AO2
KJDD 211435Z AUTO 24005KT 10SM OVC011 25/23 A2993 RMK AO2
KJDD 211355Z AUTO 23003KT 5SM BR OVC004 24/23 A2994 RMK AO2
KJDD 211335Z AUTO 30004KT 5SM BR OVC004 24/23 A2993 RMK AO2
KJDD 211315Z AUTO 33004KT 10SM OVC004 24/23 A2993 RMK AO2
KJDD 211255Z AUTO 26004KT 10SM OVC004 24/23 A2993 RMK AO2
KJDD 211235Z AUTO 36006KT 10SM OVC004 24/23 A2992 RMK AO2
KJDD 211215Z AUTO 25003KT 10SM OVC004 23/22 A2992 RMK AO2
KJDD 211155Z AUTO 35003KT 10SM OVC006 23/22 A2992 RMK AO2
KJDD 211135Z AUTO 35003KT 10SM BKN008 22/22 A2991 RMK AO2
KJDD 211115Z AUTO 00000KT 10SM CLR 22/22 A2990 RMK AO2
KJDD 211055Z AUTO 13005KT 10SM CLR 23/22 A2990 RMK AO2
KJDD 211035Z AUTO 13005KT 10SM CLR 23/22 A2989 RMK AO2
KJDD 211015Z AUTO 17005KT 10SM CLR 23/22 A2988 RMK AO2
KJDD 210955Z AUTO 16007KT 120V210 10SM SCT007 23/22 A2988 RMK AO2
KJDD 210935Z AUTO 17007KT 120V200 10SM CLR 23/22 A2988 RMK AO2
KJDD 210915Z AUTO 12006KT 10SM CLR 23/22 A2989 RMK AO2
KJDD 210855Z AUTO 14007KT 110V200 10SM CLR 24/23 A2989 RMK AO2
KJDD 210835Z AUTO 13006KT 10SM CLR 24/23 A2989 RMK AO2
KJDD 210815Z AUTO 13006KT 10SM CLR 24/23 A2989 RMK AO2
KJDD 210755Z AUTO 12005KT 10SM CLR 24/23 A2989 RMK AO2
KJDD 210735Z AUTO 10006KT 10SM CLR 24/23 A2989 RMK AO2
KJDD 210715Z AUTO 14003KT 4SM BR CLR 23/23 A2989 RMK AO2
KJDD 210655Z AUTO 00000KT 4SM BR CLR 23/23 A2990 RMK AO2
KJDD 210635Z AUTO 00000KT 4SM BR CLR 23/23 A2990 RMK AO2
KJDD 210615Z AUTO 00000KT 4SM BR SCT012 SCT050 23/23 A2990 RMK AO2
KJDD 210555Z AUTO 11005KT 5SM BR SCT012 BKN050 24/23 A2990 RMK AO2
KJDD 210535Z AUTO 00000KT 7SM BR CLR 24/23 A2989 RMK AO2
KJDD 210515Z AUTO 11005KT 7SM BR CLR 24/23 A2989 RMK AO2
KJDD 210455Z AUTO 09003KT 7SM BR SCT055 SCT085 24/23 A2990 RMK AO2
KJDD 210435Z AUTO 13005KT 7SM SCT050 BKN085 24/23 A2990 RMK AO2
KJDD 210415Z AUTO 03003KT 7SM SCT085 24/23 A2990 RMK AO2 LTG DSNT SE AND S
KJDD 210355Z AUTO 10003KT 10SM SCT080 24/23 A2988 RMK AO2
KJDD 210335Z AUTO 14005KT 10SM BKN080 24/23 A2988 RMK AO2